Time;durP1;ratioP1;P1;durP2;ratioP2;P2;SDS_P1;SDS_P2;PMS_P1;PMS_P2;Temp;Humidity;BMP_temperature;BMP_pressure;BME280_temperature;BME280_humidity;BME280_pressure;Samples;Min_cycle;Max_cycle;Signal;HPM_P1;HPM_P2
2022/12/26 00:01:10;;;;;;;111.30;33.13;;;6.60;99.90;;;4.97;100.00;100349.97;4981292;28;20037;-84
2022/12/26 00:04:17;;;;;;;113.60;31.13;;;6.60;99.90;;;4.94;100.00;100344.81;4979297;28;20493;-83
2022/12/26 00:06:45;;;;;;;139.82;34.65;;;6.50;99.90;;;4.99;100.00;100353.41;4994295;28;20030;-83
2022/12/26 00:09:11;;;;;;;148.25;36.28;;;6.60;99.90;;;4.93;100.00;100350.97;4975402;28;20032;-83
2022/12/26 00:11:38;;;;;;;183.80;38.90;;;6.50;99.90;;;4.93;100.00;100341.38;5002811;28;20100;-83
2022/12/26 00:14:16;;;;;;;180.82;39.35;;;6.60;99.90;;;4.92;100.00;100336.19;4993294;28;20537;-84
2022/12/26 00:16:51;;;;;;;180.70;39.67;;;6.50;99.90;;;4.93;100.00;100338.75;5004030;28;20117;-82
2022/12/26 00:19:17;;;;;;;155.55;35.83;;;6.50;99.90;;;4.88;100.00;100329.34;4991986;28;20037;-82
2022/12/26 00:21:42;;;;;;;208.73;42.58;;;6.50;99.90;;;4.97;100.00;100328.22;4983568;28;21975;-82
2022/12/26 00:24:10;;;;;;;214.48;45.15;;;6.50;99.90;;;5.01;100.00;100322.00;4995507;28;20030;-82
2022/12/26 00:26:44;;;;;;;185.38;41.33;;;6.50;99.90;;;5.05;100.00;100321.03;4993282;28;20037;-83
2022/12/26 00:29:09;;;;;;;174.70;40.55;;;6.60;99.90;;;5.04;100.00;100324.56;4989130;28;20034;-83
2022/12/26 00:31:35;;;;;;;182.52;40.38;;;6.50;99.90;;;5.01;100.00;100322.00;4990733;28;20064;-83
2022/12/26 00:34:02;;;;;;;106.93;29.08;;;6.60;99.90;;;4.96;100.00;100314.31;4991094;28;20094;-82
2022/12/26 00:36:32;;;;;;;200.05;43.25;;;6.60;99.90;;;5.05;100.00;100316.66;4994315;28;20029;-83
2022/12/26 00:39:01;;;;;;;138.18;38.28;;;6.50;99.90;;;4.98;100.00;100309.06;4994504;28;20030;-82
2022/12/26 00:41:27;;;;;;;188.95;42.90;;;6.60;99.90;;;5.09;100.00;100310.44;4995281;28;20116;-84
2022/12/26 00:43:53;;;;;;;201.00;43.00;;;6.60;99.90;;;5.09;100.00;100310.44;4979357;28;20092;-82
2022/12/26 00:46:24;;;;;;;178.50;41.08;;;6.60;99.90;;;5.14;100.00;100315.53;4988550;28;20038;-83
2022/12/26 00:48:50;;;;;;;206.48;42.65;;;6.70;99.90;;;5.14;100.00;100312.94;4987617;28;20034;-83
2022/12/26 00:51:16;;;;;;;176.52;39.85;;;6.70;99.90;;;5.18;100.00;100311.06;4986066;28;20076;-83
2022/12/26 00:53:42;;;;;;;204.85;44.70;;;6.70;99.90;;;5.22;100.00;100297.88;4994298;28;20030;-82
2022/12/26 00:56:08;;;;;;;250.70;47.40;;;6.70;99.90;;;5.26;100.00;100301.25;4990046;28;20475;-82
2022/12/26 00:58:37;;;;;;;235.75;45.33;;;6.80;99.90;;;5.33;100.00;100287.09;4988602;28;20030;-83
2022/12/26 01:01:22;;;;;;;229.30;43.58;;;6.80;99.90;;;5.34;100.00;100288.81;4975417;28;20030;-84
2022/12/26 01:03:49;;;;;;;227.18;46.35;;;6.90;99.90;;;5.39;100.00;100280.81;5001513;28;20022;-83
2022/12/26 01:06:15;;;;;;;225.63;42.40;;;6.90;99.90;;;5.36;100.00;100284.41;4997228;28;20033;-84
2022/12/26 01:08:42;;;;;;;293.48;50.15;;;6.90;99.90;;;5.42;100.00;100270.28;4993419;28;20506;-83
2022/12/26 01:11:13;;;;;;;286.23;49.30;;;6.90;99.90;;;5.49;100.00;100277.03;4991106;28;20112;-83
2022/12/26 01:13:38;;;;;;;267.23;48.22;;;6.90;99.90;;;5.48;100.00;100275.28;4988178;28;20110;-83
2022/12/26 01:16:05;;;;;;;267.20;48.83;;;6.90;99.90;;;5.48;100.00;100267.47;4994805;28;20041;-83
2022/12/26 01:18:31;;;;;;;298.85;50.53;;;6.90;99.90;;;5.52;100.00;100262.09;4978363;28;20537;-82
2022/12/26 01:21:01;;;;;;;302.00;49.08;;;7.00;99.90;;;5.50;100.00;100257.81;4993869;28;20085;-83
2022/12/26 01:23:30;;;;;;;317.63;50.35;;;7.00;99.90;;;5.52;100.00;100256.00;4990671;28;20061;-83
2022/12/26 01:25:56;;;;;;;282.83;48.03;;;7.00;99.90;;;5.52;100.00;100251.63;4992274;28;20021;-83
2022/12/26 01:28:22;;;;;;;370.60;48.90;;;7.00;99.90;;;5.53;100.00;100250.75;5001163;28;20083;-82
2022/12/26 01:30:48;;;;;;;307.38;51.63;;;7.00;99.90;;;5.57;100.00;100248.03;4995376;28;20027;-83
2022/12/26 01:33:13;;;;;;;305.50;50.67;;;7.10;99.90;;;5.62;100.00;100251.34;4995930;28;20113;-83
2022/12/26 01:35:48;;;;;;;347.35;50.72;;;7.10;99.90;;;5.63;100.00;100240.84;4991494;28;20049;-83
2022/12/26 01:38:14;;;;;;;368.73;51.88;;;7.10;99.90;;;5.65;100.00;100238.19;4991551;28;20038;-83
2022/12/26 01:40:42;;;;;;;341.70;50.15;;;7.10;99.90;;;5.67;100.00;100229.38;4995087;28;20513;-83
2022/12/26 01:43:14;;;;;;;347.10;50.75;;;7.10;99.90;;;5.73;100.00;100238.78;4994987;28;20065;-83
2022/12/26 01:45:55;;;;;;;367.08;52.63;;;7.10;99.90;;;5.68;100.00;100253.72;4988088;28;20088;-83
2022/12/26 01:48:32;;;;;;;304.40;48.88;;;7.20;99.90;;;5.66;100.00;100251.19;4988227;28;20482;-83
2022/12/26 01:51:06;;;;;;;329.30;48.35;;;7.10;99.90;;;5.67;100.00;100262.47;4993311;28;20056;-83
2022/12/26 01:53:43;;;;;;;327.00;49.75;;;7.20;99.90;;;5.71;100.00;100248.41;4989383;28;20026;-84
2022/12/26 01:56:18;;;;;;;309.58;48.25;;;7.20;99.90;;;5.73;100.00;100241.38;5008233;28;20030;-83
2022/12/26 01:59:22;;;;;;;362.38;50.90;;;7.20;99.90;;;5.79;100.00;100238.56;4989986;28;20036;-83
2022/12/26 02:01:53;;;;;;;313.77;48.55;;;7.20;99.90;;;5.82;100.00;100228.00;4963201;28;20053;-83
2022/12/26 02:07:37;;;;;;;410.95;52.10;;;7.30;99.90;;;5.98;100.00;100223.09;4998623;28;20117;-83
2022/12/26 02:10:17;;;;;;;388.58;50.28;;;7.40;99.90;;;6.00;100.00;100217.84;5006638;28;20026;-82
2022/12/26 02:12:53;;;;;;;489.27;54.17;;;;;;;6.05;100.00;100223.75;4990936;28;20022;-83
2022/12/26 02:15:19;;;;;;;317.73;47.38;;;7.40;99.90;;;6.09;100.00;100226.22;5012469;28;20049;-82
2022/12/26 02:17:44;;;;;;;294.60;44.97;;;7.50;99.90;;;6.12;100.00;100236.53;4997820;28;20030;-82
2022/12/26 02:20:36;;;;;;;297.60;45.78;;;7.50;99.90;;;6.14;100.00;100237.34;4996136;28;20048;-82
2022/12/26 02:23:51;;;;;;;309.85;46.35;;;7.50;99.90;;;6.19;100.00;100236.31;5011434;28;20040;-82
2022/12/26 02:26:22;;;;;;;246.35;41.92;;;7.60;99.90;;;6.19;100.00;100220.63;4949224;28;20036;-83
2022/12/26 02:29:53;;;;;;;204.48;41.83;;;7.60;99.90;;;6.22;100.00;100213.53;5024639;23;20046;-83
2022/12/26 02:33:21;;;;;;;168.52;38.65;;;7.70;99.90;;;6.29;100.00;100220.25;4988265;28;20097;-83
2022/12/26 02:35:50;;;;;;;149.45;37.45;;;7.70;99.90;;;6.34;100.00;100225.31;4968306;28;20042;-82
2022/12/26 02:38:40;;;;;;;132.38;36.88;;;7.80;99.90;;;6.38;100.00;100213.81;4927708;29;20410;-82
2022/12/26 02:41:39;;;;;;;128.80;36.08;;;7.80;99.90;;;6.42;100.00;100217.19;4992786;28;20042;-83
2022/12/26 02:47:40;;;;;;;102.57;34.15;;;7.90;99.90;;;6.51;100.00;100228.13;5020922;28;20513;-83
2022/12/26 03:19:06;;;;;;;65.63;25.65;;;8.30;99.90;;;6.87;100.00;100214.56;5002473;28;20397;-82
2022/12/26 03:21:43;;;;;;;65.32;26.77;;;8.30;99.90;;;6.87;100.00;100209.31;4994480;28;20030;-82
2022/12/26 03:24:15;;;;;;;62.30;24.10;;;8.30;99.90;;;6.88;100.00;100223.25;5010484;28;20028;-83
2022/12/26 03:26:51;;;;;;;72.32;26.02;;;8.30;99.90;;;6.89;100.00;100225.81;5015395;28;20030;-82
2022/12/26 03:32:13;;;;;;;67.80;24.50;;;8.30;99.90;;;6.86;100.00;100227.69;5016946;28;20099;-83
2022/12/26 03:34:42;;;;;;;58.13;22.65;;;8.30;99.90;;;6.88;100.00;100233.72;5008503;28;20046;-83
2022/12/26 03:37:49;;;;;;;63.55;22.77;;;8.30;99.90;;;6.86;100.00;100225.06;4996367;28;20633;-82
2022/12/26 04:44:25;;;;;;;48.70;15.73;;;8.00;99.90;;;6.50;100.00;100272.66;5009886;28;20085;-82
2022/12/26 04:46:53;;;;;;;46.33;15.65;;;8.00;99.90;;;6.48;100.00;100264.00;5013796;28;20058;-82
2022/12/26 04:52:10;;;;;;;67.47;19.15;;;8.00;99.90;;;6.50;100.00;100262.19;5018590;28;20041;-82
2022/12/26 04:54:45;;;;;;;67.10;19.23;;;7.90;99.90;;;6.52;100.00;100260.38;5006954;28;20037;-82
2022/12/26 04:57:11;;;;;;;57.95;17.83;;;7.90;99.90;;;6.46;100.00;100261.47;5012567;28;20026;-82
2022/12/26 04:59:36;;;;;;;65.80;18.42;;;7.90;99.90;;;6.49;100.00;100276.19;5011949;28;20041;-82
2022/12/26 05:10:27;;;;;;;51.80;15.85;;;7.90;99.90;;;6.35;100.00;100274.94;5029838;28;19915;-82
2022/12/26 05:12:53;;;;;;;70.43;17.52;;;7.80;99.90;;;6.39;100.00;100277.44;4998109;28;20057;-81
2022/12/26 05:15:20;;;;;;;64.05;17.67;;;7.90;99.90;;;6.38;100.00;100270.50;5018708;28;20025;-82
2022/12/26 05:29:05;;;;;;;52.22;15.30;;;7.80;99.90;;;6.30;100.00;100284.69;5005605;28;20065;-81
2022/12/26 05:31:31;;;;;;;58.17;14.90;;;7.80;99.90;;;6.28;100.00;100289.13;5004172;28;20038;-80
2022/12/26 05:34:10;;;;;;;45.60;14.85;;;7.80;99.90;;;6.29;100.00;100287.38;4991560;28;20451;-81
2022/12/26 05:36:40;;;;;;;55.88;14.77;;;7.80;99.90;;;6.30;100.00;100282.06;5009866;28;20147;-82
2022/12/26 05:39:12;;;;;;;50.15;14.25;;;7.80;99.90;;;6.29;100.00;100280.38;5006600;28;20022;-80
2022/12/26 05:41:39;;;;;;;50.25;14.48;;;7.70;99.90;;;6.29;100.00;100275.16;5009853;28;20030;-81
2022/12/26 05:44:06;;;;;;;40.83;13.75;;;7.70;99.90;;;6.27;100.00;100286.59;4992882;28;20030;-82
2022/12/26 05:46:33;;;;;;;53.53;15.27;;;7.80;99.90;;;6.25;100.00;100294.47;5017432;28;20029;-80
2022/12/26 05:49:04;;;;;;;52.58;15.65;;;7.70;99.90;;;6.25;100.00;100291.84;4993494;28;20041;-81
2022/12/26 05:51:30;;;;;;;52.97;14.95;;;7.80;99.90;;;6.25;100.00;100289.25;5007254;28;20026;-81
2022/12/26 05:53:56;;;;;;;61.13;15.82;;;7.70;99.90;;;6.27;100.00;100297.88;4992006;28;20044;-81
2022/12/26 05:56:23;;;;;;;49.28;14.68;;;7.70;99.90;;;6.24;100.00;100292.78;5007237;28;20022;-80
2022/12/26 05:58:57;;;;;;;49.20;14.63;;;7.70;99.90;;;6.23;100.00;100291.06;5006612;28;20049;-79
2022/12/26 06:01:27;;;;;;;65.95;16.10;;;7.70;99.90;;;6.21;100.00;100281.56;5015290;28;20112;-81
2022/12/26 06:03:58;;;;;;;59.67;17.65;;;7.70;99.90;;;6.20;100.00;100291.19;5005798;28;20498;-80
2022/12/26 06:06:27;;;;;;;72.75;18.33;;;7.70;99.90;;;6.23;100.00;100288.44;5006423;28;20121;-81
2022/12/26 06:08:55;;;;;;;68.82;17.85;;;7.70;99.90;;;6.22;100.00;100284.13;5006317;28;20028;-81
2022/12/26 06:11:23;;;;;;;67.22;19.02;;;7.70;99.90;;;6.22;100.00;100291.97;4990333;28;20036;-81
2022/12/26 06:13:51;;;;;;;64.05;17.25;;;7.70;99.90;;;6.23;100.00;100293.66;5009112;28;20029;-81
2022/12/26 06:16:18;;;;;;;69.57;18.52;;;7.70;99.90;;;6.24;100.00;100299.75;5006804;28;20046;-81
2022/12/26 06:18:47;;;;;;;59.92;17.65;;;7.70;99.90;;;6.22;100.00;100301.56;5004574;28;20116;-81
2022/12/26 06:21:25;;;;;;;64.15;18.40;;;7.70;99.90;;;6.20;100.00;100299.03;4988951;28;20057;-81
2022/12/26 06:23:51;;;;;;;64.35;17.88;;;7.70;99.90;;;6.21;100.00;100295.50;5008028;28;20041;-81
2022/12/26 06:26:17;;;;;;;62.80;18.10;;;7.70;99.90;;;6.21;100.00;100298.09;4988832;28;20037;-81
2022/12/26 06:28:46;;;;;;;55.70;17.67;;;7.70;99.90;;;6.22;100.00;100298.94;4989881;28;20041;-81
2022/12/26 06:31:19;;;;;;;64.45;17.88;;;7.70;99.90;;;6.23;100.00;100311.97;5004588;28;20026;-81
2022/12/26 06:33:53;;;;;;;63.33;18.15;;;7.70;99.90;;;6.18;100.00;100311.28;5003016;28;20038;-81
2022/12/26 06:36:22;;;;;;;65.63;18.45;;;7.70;99.90;;;6.21;100.00;100313.78;5008719;28;20038;-81
2022/12/26 06:38:48;;;;;;;70.35;18.88;;;7.70;99.90;;;6.21;100.00;100311.19;4991101;28;20070;-80
2022/12/26 06:41:17;;;;;;;64.68;18.30;;;7.70;99.90;;;6.20;100.00;100319.06;4988400;28;20421;-80
2022/12/26 06:43:46;;;;;;;69.30;17.77;;;7.70;99.90;;;6.19;100.00;100322.59;4986420;28;20038;-82
2022/12/26 06:46:15;;;;;;;72.18;19.30;;;7.70;99.90;;;6.16;100.00;100327.03;4990406;28;20037;-80
2022/12/26 06:48:41;;;;;;;79.28;19.67;;;7.70;99.90;;;6.15;100.00;100324.44;5005075;28;20096;-82
2022/12/26 06:51:14;;;;;;;93.90;20.92;;;7.70;99.90;;;6.18;100.00;100332.22;5010503;28;20017;-80
2022/12/26 06:53:40;;;;;;;97.30;20.48;;;7.70;99.90;;;6.16;100.00;100323.56;5002757;28;20025;-80
2022/12/26 06:56:09;;;;;;;93.15;22.33;;;7.70;99.90;;;6.18;100.00;100313.91;5004487;28;20034;-81
2022/12/26 06:58:43;;;;;;;89.22;20.27;;;7.70;99.90;;;6.21;100.00;100315.56;5005026;28;20406;-81
2022/12/26 07:01:12;;;;;;;101.13;22.27;;;7.70;99.90;;;6.21;100.00;100311.19;4990359;28;20563;-80
2022/12/26 07:03:39;;;;;;;73.22;19.80;;;7.70;99.90;;;6.19;100.00;100310.38;5002657;28;20031;-81
2022/12/26 07:06:17;;;;;;;79.43;20.73;;;7.70;99.90;;;6.22;100.00;100318.13;5002526;28;20086;-81
2022/12/26 07:08:45;;;;;;;74.25;20.38;;;7.70;99.90;;;6.22;100.00;100331.19;4986541;28;20026;-81
2022/12/26 07:11:23;;;;;;;75.43;18.83;;;7.70;99.90;;;6.24;100.00;100325.91;4990736;28;20037;-81
2022/12/26 07:13:51;;;;;;;58.72;17.65;;;7.70;99.90;;;6.22;100.00;100320.75;5002797;28;20048;-82
2022/12/26 07:16:17;;;;;;;67.10;18.25;;;7.70;99.90;;;6.26;100.00;100324.06;4988707;28;20502;-80
2022/12/26 07:18:43;;;;;;;76.05;19.35;;;7.70;99.90;;;6.25;100.00;100325.00;5003741;28;20083;-79
2022/12/26 07:21:12;;;;;;;71.15;17.67;;;7.70;99.90;;;6.26;100.00;100332.78;4988197;28;20048;-81
2022/12/26 07:23:38;;;;;;;73.60;19.58;;;7.70;99.90;;;6.25;100.00;100335.47;5007046;28;20031;-82
2022/12/26 07:26:10;;;;;;;77.40;19.65;;;7.70;99.90;;;6.23;100.00;100330.28;5008762;28;20038;-81
2022/12/26 07:28:36;;;;;;;92.63;21.65;;;7.70;99.90;;;6.24;100.00;100333.72;4988848;28;20043;-80
2022/12/26 07:31:03;;;;;;;92.53;21.33;;;7.70;99.90;;;6.27;100.00;100329.25;5004281;28;20037;-80
2022/12/26 07:33:29;;;;;;;89.72;21.20;;;7.70;99.90;;;6.27;100.00;100328.41;4987002;28;20053;-80
2022/12/26 07:36:06;;;;;;;71.65;19.58;;;7.70;99.90;;;6.27;100.00;100334.50;4989744;28;20022;-80
2022/12/26 07:38:32;;;;;;;76.40;19.35;;;7.70;99.90;;;6.26;100.00;100342.38;4989842;28;20052;-81
2022/12/26 07:40:58;;;;;;;85.55;20.15;;;7.70;99.90;;;6.26;100.00;100330.16;4988254;28;20029;-81
2022/12/26 07:43:27;;;;;;;86.68;20.08;;;7.70;99.90;;;6.29;100.00;100342.28;4986176;28;20407;-81
2022/12/26 07:45:57;;;;;;;73.47;19.95;;;7.80;99.90;;;6.31;100.00;100337.88;4990758;28;20034;-81
2022/12/26 07:48:23;;;;;;;70.82;19.80;;;7.80;99.90;;;6.32;100.00;100350.88;5005487;28;20671;-81
2022/12/26 07:50:50;;;;;;;86.13;20.38;;;7.80;99.90;;;6.33;100.00;100357.81;5006210;28;20021;-80
2022/12/26 07:53:23;;;;;;;61.97;18.15;;;7.80;99.90;;;6.32;100.00;100368.31;4986279;28;20080;-80
2022/12/26 07:55:49;;;;;;;70.00;19.60;;;7.80;99.90;;;6.33;100.00;100370.91;5002445;28;20030;-81
2022/12/26 07:58:15;;;;;;;75.57;20.15;;;7.80;99.90;;;6.37;100.00;100374.22;5008616;28;20026;-81
2022/12/26 08:00:40;;;;;;;80.03;20.95;;;7.80;99.90;;;6.34;100.00;100374.34;4987299;28;20121;-79
2022/12/26 08:03:14;;;;;;;64.95;20.25;;;7.80;99.90;;;6.35;100.00;100384.78;5000755;28;20674;-81
2022/12/26 08:05:43;;;;;;;64.40;20.88;;;7.80;99.90;;;6.33;100.00;100391.81;5002313;28;20026;-81
2022/12/26 08:08:08;;;;;;;64.10;20.00;;;7.80;99.90;;;6.35;100.00;100394.38;4985904;28;20026;-81
2022/12/26 08:10:34;;;;;;;56.38;19.73;;;7.90;99.90;;;6.35;100.00;100412.69;4987304;28;20017;-81
2022/12/26 08:13:08;;;;;;;54.10;19.63;;;7.80;99.90;;;6.35;100.00;100416.16;5007224;28;20104;-81
2022/12/26 08:15:33;;;;;;;60.22;20.85;;;7.80;99.90;;;6.38;100.00;100422.19;5024734;28;20042;-81
2022/12/26 08:17:59;;;;;;;62.50;20.67;;;7.80;99.90;;;6.39;100.00;100422.09;5022274;28;20050;-82
2022/12/26 08:20:25;;;;;;;60.00;21.40;;;7.90;99.90;;;6.44;100.00;100427.22;5000606;28;20032;-82
2022/12/26 08:22:51;;;;;;;52.10;19.80;;;7.90;99.90;;;6.42;100.00;100421.19;5010711;28;20037;-81
2022/12/26 08:25:25;;;;;;;51.78;18.60;;;7.90;99.90;;;6.45;100.00;100428.91;5007721;28;20037;-82
2022/12/26 08:27:51;;;;;;;48.42;17.88;;;7.90;99.90;;;6.49;100.00;100430.50;5006086;28;20076;-82
2022/12/26 08:30:17;;;;;;;46.25;18.08;;;8.00;99.90;;;6.48;100.00;100428.78;5002762;28;20072;-82
2022/12/26 08:32:45;;;;;;;49.00;17.80;;;8.00;99.90;;;6.50;100.00;100430.47;4988176;28;20141;-82
2022/12/26 08:35:14;;;;;;;50.70;19.20;;;8.00;99.90;;;6.51;100.00;100426.09;5007026;28;20044;-81
2022/12/26 08:37:39;;;;;;;52.00;19.42;;;8.00;99.90;;;6.56;100.00;100427.63;5010016;28;20041;-81
2022/12/26 08:40:06;;;;;;;55.28;19.77;;;8.00;99.90;;;6.57;100.00;100433.72;4990687;28;20100;-82
2022/12/26 08:42:32;;;;;;;55.90;20.85;;;8.10;99.90;;;6.56;100.00;100432.84;5012943;28;20038;-81
2022/12/26 08:44:57;;;;;;;65.65;22.13;;;8.10;99.90;;;6.59;100.00;100439.75;4994082;28;20165;-82
2022/12/26 08:47:32;;;;;;;64.88;23.40;;;8.10;99.90;;;6.60;100.00;100443.22;4994749;28;20022;-82
2022/12/26 08:49:58;;;;;;;55.40;21.02;;;8.10;99.90;;;6.63;100.00;100435.25;5009107;28;20034;-81
2022/12/26 08:52:23;;;;;;;61.80;21.55;;;8.10;99.90;;;6.69;100.00;100435.88;5002108;28;20056;-81
2022/12/26 08:54:49;;;;;;;48.97;19.92;;;8.10;99.90;;;6.71;100.00;100421.00;4997640;28;20088;-81
2022/12/26 08:57:15;;;;;;;51.83;21.63;;;8.20;99.90;;;6.80;100.00;100425.03;5008630;28;20678;-81
2022/12/26 08:59:46;;;;;;;45.67;20.08;;;8.20;99.90;;;6.86;100.00;100409.13;4995610;28;20046;-80
2022/12/26 09:02:12;;;;;;;44.60;19.73;;;8.30;99.90;;;6.91;100.00;100415.06;5007674;28;20037;-81
2022/12/26 09:04:37;;;;;;;35.08;17.17;;;8.30;99.90;;;6.95;100.00;100416.66;4993279;28;20105;-82
2022/12/26 09:07:08;;;;;;;35.42;16.17;;;8.40;99.90;;;7.00;100.00;100411.25;4987232;28;20034;-81
2022/12/26 09:09:37;;;;;;;39.33;16.13;;;8.40;99.90;;;7.08;100.00;100413.56;5011898;28;20306;-81
2022/12/26 09:12:03;;;;;;;32.00;15.82;;;8.40;99.90;;;7.09;100.00;100410.91;4988756;28;20026;-82
2022/12/26 09:14:29;;;;;;;35.13;16.45;;;8.40;99.90;;;7.13;100.00;100403.81;5007739;28;20041;-81
2022/12/26 09:16:55;;;;;;;38.65;16.23;;;8.50;99.90;;;7.12;100.00;100407.31;4989796;28;20069;-82
2022/12/26 09:19:22;;;;;;;29.27;14.60;;;8.50;99.90;;;7.09;100.00;100410.91;5012084;28;20391;-80
2022/12/26 09:22:49;;;;;;;32.13;15.00;;;8.50;99.90;;;7.13;100.00;100401.19;4994605;28;20044;-81
2022/12/26 09:24:37;;;;;;;39.45;15.73;;;8.50;99.90;;;7.09;100.00;100407.44;5009253;28;20066;-82
2022/12/26 09:27:03;;;;;;;41.45;15.60;;;8.50;99.90;;;7.09;100.00;100408.28;5006452;28;20043;-81
2022/12/26 09:29:39;;;;;;;37.92;15.25;;;8.50;99.90;;;7.11;100.00;100410.84;4989941;28;20472;-81
2022/12/26 09:32:15;;;;;;;41.63;15.10;;;8.50;99.90;;;7.09;100.00;100396.97;5007636;28;20152;-81
2022/12/26 09:34:41;;;;;;;44.72;15.70;;;8.50;99.90;;;7.12;100.00;100405.53;4990223;28;20044;-82
2022/12/26 09:37:10;;;;;;;41.03;15.63;;;8.50;99.90;;;7.11;100.00;100396.00;5014728;28;20038;-81
2022/12/26 09:39:41;;;;;;;44.35;16.00;;;8.50;99.90;;;7.14;100.00;100403.72;5010977;28;20421;-80
2022/12/26 09:42:48;;;;;;;47.25;16.58;;;8.50;99.90;;;7.14;100.00;100400.25;5006951;28;20026;-81
2022/12/26 09:45:26;;;;;;;41.38;14.93;;;8.50;99.90;;;7.13;100.00;100399.41;4993094;28;20052;-81
2022/12/26 09:48:32;;;;;;;45.75;15.75;;;8.50;99.90;;;7.12;100.00;100402.06;4993297;28;20137;-81
2022/12/26 09:51:04;;;;;;;51.45;17.77;;;8.60;99.90;;;7.08;100.00;100400.47;5006679;28;20554;-82
2022/12/26 09:53:46;;;;;;;54.42;18.58;;;8.50;99.90;;;7.15;100.00;100405.44;4988622;28;20029;-80
2022/12/26 09:56:19;;;;;;;50.22;17.55;;;8.60;99.90;;;7.15;100.00;100408.06;5005227;28;20034;-81
2022/12/26 09:58:56;;;;;;;50.35;16.63;;;8.60;99.90;;;7.13;100.00;100403.81;5002457;28;20513;-81
2022/12/26 10:01:36;;;;;;;51.75;18.02;;;8.60;99.90;;;7.14;100.00;100413.34;5009722;28;20037;-81
2022/12/26 10:04:24;;;;;;;45.95;16.48;;;8.60;99.90;;;7.16;100.00;100412.38;4989729;28;20033;-80
2022/12/26 10:07:12;;;;;;;51.15;17.33;;;8.60;99.90;;;7.15;100.00;100413.31;4990647;28;20025;-80
2022/12/26 10:10:10;;;;;;;57.38;16.73;;;8.60;99.90;;;7.15;100.00;100425.56;5007549;28;20304;-80
2022/12/26 10:12:42;;;;;;;55.38;17.48;;;8.60;99.90;;;7.11;100.00;100424.78;5004951;28;20026;-80
2022/12/26 10:15:53;;;;;;;50.40;16.15;;;8.50;99.90;;;7.10;100.00;100417.84;5005411;28;20025;-81
2022/12/26 10:18:42;;;;;;;45.10;16.23;;;8.60;99.90;;;7.08;100.00;100427.50;5003292;28;20030;-80
2022/12/26 10:21:55;;;;;;;54.80;16.33;;;8.50;99.90;;;7.04;100.00;100431.19;5008306;28;20060;-80
2022/12/26 10:24:32;;;;;;;53.08;15.68;;;8.50;99.90;;;7.05;100.00;100422.41;5004798;28;20038;-80
2022/12/26 10:27:15;;;;;;;47.35;16.80;;;8.50;99.90;;;7.07;100.00;100425.81;4989108;28;20062;-80
2022/12/26 10:29:58;;;;;;;49.47;16.92;;;8.60;99.90;;;7.12;100.00;100423.88;5010870;28;20038;-80
2022/12/26 10:32:41;;;;;;;54.75;18.80;;;8.60;99.90;;;7.19;100.00;100419.25;5007133;28;20030;-80
2022/12/26 10:35:30;;;;;;;45.00;17.65;;;8.60;99.90;;;7.17;100.00;100416.72;5024699;28;20113;-80
2022/12/26 10:38:41;;;;;;;54.72;17.98;;;8.60;99.90;;;7.22;100.00;100432.25;5010431;28;20034;-81
2022/12/26 10:41:26;;;;;;;45.78;17.17;;;8.70;99.90;;;7.24;100.00;100440.06;4990348;28;20110;-80
2022/12/26 10:44:01;;;;;;;41.53;16.17;;;8.70;99.90;;;7.27;100.00;100447.78;4989667;28;20081;-80
2022/12/26 10:47:31;;;;;;;40.38;16.35;;;8.70;99.90;;;7.29;100.00;100438.13;5008335;28;20030;-80
2022/12/26 10:49:58;;;;;;;36.45;15.57;;;8.70;99.90;;;7.36;100.00;100439.56;4975555;28;20287;-80
2022/12/26 10:52:38;;;;;;;33.78;14.77;;;8.80;99.90;;;7.43;100.00;100433.22;4978511;28;20116;-79
2022/12/26 10:55:18;;;;;;;26.92;13.07;;;8.80;99.90;;;7.46;100.00;100433.09;5003009;28;20689;-80
2022/12/26 10:57:50;;;;;;;26.90;13.00;;;8.80;99.90;;;7.48;100.00;100439.13;4991945;28;20103;-79
2022/12/26 11:00:31;;;;;;;26.60;13.52;;;8.90;99.90;;;7.49;100.00;100451.28;5025189;28;20042;-80
2022/12/26 11:03:13;;;;;;;21.63;11.30;;;8.90;99.90;;;7.53;100.00;100447.66;5018705;28;20042;-80
2022/12/26 11:05:54;;;;;;;15.05;8.55;;;8.90;99.90;;;7.52;100.00;100445.09;5004878;28;20045;-80
2022/12/26 11:08:48;;;;;;;14.13;8.23;;;9.00;99.90;;;7.50;100.00;100439.91;5005326;28;20030;-79
2022/12/26 11:11:51;;;;;;;15.07;7.90;;;8.90;99.90;;;7.54;100.00;100433.66;4990167;28;20034;-79
2022/12/26 11:14:41;;;;;;;10.38;6.10;;;9.00;99.90;;;7.54;100.00;100433.66;5002306;28;20059;-80
2022/12/26 11:17:22;;;;;;;9.93;6.20;;;9.00;99.90;;;7.55;100.00;100437.97;5002823;28;20056;-80
2022/12/26 11:20:14;;;;;;;8.60;5.88;;;9.00;99.90;;;7.58;100.00;100448.34;4990375;28;20558;-80
2022/12/26 11:22:46;;;;;;;10.10;6.22;;;9.00;99.90;;;7.62;100.00;100442.97;5021143;28;20038;-80
2022/12/26 11:25:37;;;;;;;11.48;5.63;;;9.10;99.90;;;7.62;100.00;100446.44;5003391;28;20038;-79
2022/12/26 11:28:26;;;;;;;10.90;5.57;;;9.00;99.90;;;7.59;100.00;100450.03;5000411;28;20483;-79
2022/12/26 11:31:05;;;;;;;9.68;5.95;;;9.00;99.90;;;7.62;100.00;100437.72;5002521;28;20061;-80
2022/12/26 11:33:44;;;;;;;14.20;5.47;;;9.10;99.90;;;7.62;100.00;100433.34;5002634;28;20074;-79
2022/12/26 11:36:49;;;;;;;9.82;5.38;;;9.00;99.90;;;7.67;100.00;100430.56;5004277;28;20395;-79
2022/12/26 11:39:32;;;;;;;10.35;5.60;;;9.10;99.90;;;7.72;100.00;100418.13;5004599;28;20030;-80
2022/12/26 11:42:17;;;;;;;7.80;5.20;;;9.10;99.90;;;7.76;100.00;100412.69;4986127;28;20443;-80
2022/12/26 11:44:51;;;;;;;7.97;5.45;;;9.20;99.90;;;7.83;100.00;100409.81;5005725;28;20100;-79
2022/12/26 11:48:00;;;;;;;8.35;5.47;;;9.20;99.90;;;7.82;100.00;100422.09;5018522;28;20030;-79
2022/12/26 11:50:29;;;;;;;9.25;5.63;;;9.30;99.90;;;7.88;100.00;100410.47;5000115;28;20038;-80
2022/12/26 11:53:03;;;;;;;9.82;5.13;;;9.30;99.90;;;7.95;100.00;100414.59;4960397;28;20047;-78
2022/12/26 11:55:39;;;;;;;9.90;5.15;;;9.30;99.90;;;8.00;100.00;100410.00;4975430;28;20038;-78
2022/12/26 11:58:08;;;;;;;7.60;5.20;;;9.40;99.90;;;8.01;100.00;100407.31;5002530;28;20528;-80
2022/12/26 12:01:11;;;;;;;8.85;5.35;;;9.40;99.90;;;8.04;100.00;100418.59;4966504;28;20023;-80
2022/12/26 12:03:47;;;;;;;11.85;5.82;;;9.50;99.90;;;8.06;100.00;100417.63;4979962;28;20066;-80
2022/12/26 12:06:26;;;;;;;8.63;5.60;;;9.50;99.90;;;8.05;100.00;100426.38;4964819;28;20027;-80
2022/12/26 12:09:26;;;;;;;7.15;5.20;;;9.40;99.90;;;8.01;100.00;100417.81;4962718;28;20046;-80
2022/12/26 12:12:19;;;;;;;7.95;6.07;;;9.40;99.90;;;8.02;100.00;100423.91;4991228;28;20126;-79
2022/12/26 12:15:19;;;;;;;7.47;5.18;;;9.40;99.90;;;8.00;100.00;100418.72;4993027;28;20090;-79
2022/12/26 12:18:06;;;;;;;7.97;5.55;;;9.40;99.90;;;7.98;100.00;100420.53;4996646;28;20432;-80
2022/12/26 12:21:09;;;;;;;8.45;5.55;;;9.40;99.90;;;7.97;100.00;100418.84;4972041;28;20130;-79
2022/12/26 12:24:30;;;;;;;7.35;5.43;;;9.40;99.90;;;7.95;100.00;100422.44;4959800;28;20029;-80
2022/12/26 12:27:29;;;;;;;8.60;5.35;;;9.40;99.90;;;7.94;100.00;100418.09;4979501;28;20559;-80
2022/12/26 12:30:18;;;;;;;6.70;5.30;;;9.40;99.90;;;7.95;100.00;100420.69;4964505;28;20027;-80
2022/12/26 12:33:53;;;;;;;;;;;;;;;;;;;;;
2022/12/26 12:36:41;;;;;;;5.93;4.03;;;9.40;99.90;;;7.94;100.00;100418.09;4961294;28;20598;-80
2022/12/26 12:43:32;;;;;;;7.95;5.55;;;9.40;99.90;;;7.91;100.00;100416.47;4969378;28;20034;-80
2022/12/26 12:47:50;;;;;;;7.78;5.50;;;9.40;99.90;;;7.91;100.00;100405.97;4952418;28;20057;-80
2022/12/26 12:50:13;;;;;;;10.23;5.88;;;;;;;7.94;100.00;100394.50;4961336;28;20042;-80
2022/12/26 12:53:22;;;;;;;6.95;5.05;;;9.30;99.90;;;7.95;100.00;100394.47;4967175;28;20380;-80